Progress, Indiana
Current Conditions -  °F | °C
As of 6:53 AM on Friday 28 Nov 2014 (Local Time) from KMIE Reporting Station
Overcast Overcast  
Wind Chill: 16°   Ceiling: 9500
Heat Index: 22°   Visibility: 9mi
Dew Point: 18°   Wind: 5mph
Humidity: 85%   Direction: 210°SSW
Pressure: 30.36"   Gusts: NA
Location:  40.1286°N, 85.3767°W
Report Text: KMIE 281153Z 21004KT 9SM OVC095 M06/M08 A3036 RMK AO2 SLP291 T10561078 11044 21061 50005
Loading
Personal Weather Stations






























Interactive Weather Map New forecast layout! Learn more

10-Day Weather Forecast

Advertisements
Track Severe Weather on mobile